createdAt,value
2023-03-02T00:00:32.918Z,132.30
2023-03-02T00:03:00.319Z,118.27
2023-03-02T00:05:28.486Z,100.23
2023-03-02T00:07:55.614Z,81.07
2023-03-02T00:10:22.740Z,109.13
2023-03-02T00:12:49.912Z,113.17
2023-03-02T00:15:17.078Z,121.97
2023-03-02T00:17:44.197Z,109.50
2023-03-02T00:20:12.128Z,101.27
2023-03-02T00:22:39.784Z,100.43
2023-03-02T00:25:07.168Z,103.30
2023-03-02T00:27:34.340Z,101.87
2023-03-02T00:30:01.609Z,103.67
2023-03-02T00:32:28.765Z,101.70
2023-03-02T00:34:55.979Z,107.87
2023-03-02T00:37:23.089Z,116.30
2023-03-02T00:39:51.991Z,108.77
2023-03-02T00:42:19.185Z,104.77
2023-03-02T00:44:46.318Z,102.30
2023-03-02T00:47:13.496Z,98.07
2023-03-02T00:49:40.651Z,96.93
2023-03-02T00:52:07.775Z,100.83
2023-03-02T00:54:34.888Z,102.13
2023-03-02T00:57:02.041Z,110.40
2023-03-02T00:59:29.216Z,93.00
2023-03-02T01:01:59.902Z,106.60
2023-03-02T01:04:46.315Z,112.93
2023-03-02T01:07:14.941Z,87.97
2023-03-02T01:09:42.397Z,101.07
2023-03-02T01:12:11.259Z,104.03
2023-03-02T01:14:42.300Z,109.50
2023-03-02T01:17:09.815Z,104.60
2023-03-02T01:19:37.199Z,109.57
2023-03-02T01:22:04.343Z,108.33
2023-03-02T01:24:32.246Z,100.07
2023-03-02T01:26:59.422Z,103.97
2023-03-02T01:29:26.567Z,95.27
2023-03-02T01:31:53.903Z,95.33
2023-03-02T01:34:21.153Z,93.30
2023-03-02T01:36:48.258Z,93.37
2023-03-02T01:39:16.027Z,90.73
2023-03-02T01:41:46.199Z,96.53
2023-03-02T01:44:31.913Z,104.40
2023-03-02T01:46:59.084Z,89.70
2023-03-02T01:49:26.221Z,92.53
2023-03-02T01:51:53.384Z,94.50
2023-03-02T01:54:23.107Z,103.43
2023-03-02T01:56:50.842Z,96.63
2023-03-02T01:59:18.922Z,90.90
2023-03-02T02:01:46.731Z,99.70
2023-03-02T02:04:14.268Z,101.93
2023-03-02T02:06:42.061Z,98.70
2023-03-02T02:09:10.383Z,91.57
2023-03-02T02:11:37.557Z,90.00
2023-03-02T02:14:04.780Z,85.33
2023-03-02T02:16:32.782Z,80.67
2023-03-02T02:19:00.102Z,82.77
2023-03-02T02:21:27.193Z,78.73
2023-03-02T02:24:03.494Z,92.83
2023-03-02T02:26:35.546Z,85.20
2023-03-02T02:29:14.588Z,90.57
2023-03-02T02:31:43.903Z,102.03
2023-03-02T02:34:31.318Z,105.33
2023-03-02T02:37:00.252Z,81.77
2023-03-02T02:39:29.281Z,78.67
2023-03-02T02:41:57.485Z,63.13
2023-03-02T02:44:24.671Z,85.80
2023-03-02T02:46:51.796Z,88.30
2023-03-02T02:49:18.949Z,99.17
2023-03-02T02:51:46.082Z,95.47
2023-03-02T02:54:13.190Z,93.17
2023-03-02T02:56:40.419Z,102.40
2023-03-02T02:59:24.149Z,101.43
2023-03-02T03:01:51.292Z,98.73
2023-03-02T03:04:19.342Z,101.07
2023-03-02T03:06:50.602Z,106.20
2023-03-02T03:09:17.802Z,112.13
2023-03-02T03:11:45.840Z,103.87
2023-03-02T03:14:14.092Z,108.53
2023-03-02T03:16:41.873Z,98.20
2023-03-02T03:19:12.740Z,112.83
2023-03-02T03:21:40.190Z,110.40
2023-03-02T03:24:07.590Z,96.57
2023-03-02T03:26:34.900Z,105.93
2023-03-02T03:29:02.102Z,108.67
2023-03-02T03:31:29.288Z,101.30
2023-03-02T03:33:56.480Z,116.83
2023-03-02T03:36:23.632Z,115.13
2023-03-02T03:38:50.836Z,125.83
2023-03-02T03:41:17.952Z,116.00
2023-03-02T03:43:45.069Z,129.40
2023-03-02T03:46:12.319Z,110.10
2023-03-02T03:48:39.603Z,122.80
2023-03-02T03:51:06.885Z,107.67
2023-03-02T03:53:34.067Z,99.43
2023-03-02T03:56:02.867Z,99.40
2023-03-02T03:58:30.414Z,97.47
2023-03-02T04:00:57.796Z,93.73
2023-03-02T04:03:25.505Z,98.20
2023-03-02T04:05:52.672Z,88.97
2023-03-02T04:08:19.996Z,85.77
2023-03-02T04:10:47.156Z,90.70
2023-03-02T04:13:14.502Z,78.03
2023-03-02T04:15:42.321Z,85.30
2023-03-02T04:18:09.495Z,103.60
2023-03-02T04:20:36.629Z,102.13
2023-03-02T04:23:03.797Z,100.73
2023-03-02T04:25:31.340Z,97.53
2023-03-02T04:27:58.538Z,109.23
2023-03-02T04:30:26.236Z,96.83
2023-03-02T04:32:53.472Z,90.47
2023-03-02T04:35:20.697Z,99.80
2023-03-02T04:37:47.922Z,93.27
2023-03-02T04:40:15.270Z,93.57
2023-03-02T04:42:44.610Z,99.30
2023-03-02T04:45:11.967Z,88.97
2023-03-02T04:47:39.114Z,81.03
2023-03-02T04:50:06.616Z,83.53
2023-03-02T04:52:33.805Z,83.30
2023-03-02T04:55:00.922Z,76.23
2023-03-02T04:57:28.064Z,81.00
2023-03-02T04:59:55.241Z,80.80
2023-03-02T05:02:22.479Z,82.13
2023-03-02T05:04:49.681Z,82.00
2023-03-02T05:07:16.909Z,76.57
2023-03-02T05:09:44.033Z,74.83
2023-03-02T05:12:11.161Z,70.80
2023-03-02T05:14:38.364Z,63.47
2023-03-02T05:17:05.486Z,68.20
2023-03-02T05:19:32.623Z,67.90
2023-03-02T05:21:59.860Z,63.13
2023-03-02T05:24:27.083Z,67.50
2023-03-02T05:26:54.205Z,60.00
2023-03-02T05:29:21.379Z,60.53
2023-03-02T05:31:48.674Z,66.53
2023-03-02T05:34:16.430Z,69.57
2023-03-02T05:36:43.725Z,64.10
2023-03-02T05:39:10.910Z,72.40
2023-03-02T05:41:38.160Z,68.77
2023-03-02T05:44:06.065Z,77.00
2023-03-02T05:46:33.501Z,82.43
2023-03-02T05:49:00.935Z,89.43
2023-03-02T05:51:28.337Z,90.27
2023-03-02T05:53:55.479Z,84.20
2023-03-02T05:56:22.663Z,98.83
2023-03-02T05:58:49.832Z,89.43
2023-03-02T06:01:16.962Z,86.90
2023-03-02T06:03:44.126Z,92.00
2023-03-02T06:06:14.137Z,89.20
2023-03-02T06:08:41.776Z,94.93
2023-03-02T06:11:09.135Z,92.43
2023-03-02T06:13:36.515Z,109.00
2023-03-02T06:16:03.847Z,118.43
2023-03-02T06:18:31.055Z,114.53
2023-03-02T06:20:58.954Z,121.90
2023-03-02T06:23:26.213Z,119.53
2023-03-02T06:25:53.405Z,127.80
2023-03-02T06:28:21.847Z,132.67
2023-03-02T06:30:49.283Z,139.37
2023-03-02T06:33:18.088Z,143.73
2023-03-02T06:35:45.372Z,154.57
2023-03-02T06:38:12.617Z,157.03
2023-03-02T06:40:39.794Z,170.43
2023-03-02T06:43:07.001Z,165.23
2023-03-02T06:45:34.253Z,158.10
2023-03-02T06:48:01.988Z,156.27
2023-03-02T06:50:29.272Z,134.43
2023-03-02T06:52:56.536Z,128.10
2023-03-02T06:55:23.671Z,125.70
2023-03-02T06:57:50.857Z,127.67
2023-03-02T07:00:25.864Z,118.30
2023-03-02T07:02:53.503Z,92.90
2023-03-02T07:05:20.631Z,83.33
2023-03-02T07:07:47.847Z,88.83
2023-03-02T07:10:15.060Z,85.80
2023-03-02T07:12:42.498Z,78.20
2023-03-02T07:15:14.209Z,98.33
2023-03-02T07:17:42.180Z,102.50
2023-03-02T07:20:09.846Z,87.07
2023-03-02T07:22:37.120Z,87.27
2023-03-02T07:25:04.382Z,80.37
2023-03-02T07:27:31.559Z,75.63
2023-03-02T07:29:58.692Z,57.07
2023-03-02T07:32:25.949Z,55.40
2023-03-02T07:34:53.459Z,47.77
2023-03-02T07:37:20.676Z,40.97
2023-03-02T07:39:49.032Z,39.90
2023-03-02T07:42:16.275Z,38.70
2023-03-02T07:44:43.466Z,31.00
2023-03-02T07:47:10.662Z,35.90
2023-03-02T07:49:37.860Z,40.37
2023-03-02T07:52:05.118Z,43.57
2023-03-02T07:54:32.279Z,39.23
2023-03-02T07:56:59.422Z,33.70
2023-03-02T07:59:28.356Z,33.30
2023-03-02T08:01:55.772Z,50.27
2023-03-02T08:04:22.930Z,58.13
2023-03-02T08:06:50.123Z,54.10
2023-03-02T08:09:17.324Z,41.83
2023-03-02T08:11:45.022Z,36.47
2023-03-02T08:14:12.138Z,34.10
2023-03-02T08:16:39.916Z,34.20
2023-03-02T08:19:07.641Z,31.43
2023-03-02T08:21:35.129Z,30.00
2023-03-02T08:24:02.423Z,29.40
2023-03-02T08:26:29.563Z,40.33
2023-03-02T08:28:56.751Z,35.37
2023-03-02T08:31:23.940Z,32.87
2023-03-02T08:33:51.146Z,35.33
2023-03-02T08:36:18.779Z,36.17
2023-03-02T08:38:46.020Z,31.87
2023-03-02T08:41:14.199Z,31.10
2023-03-02T08:43:41.365Z,38.10
2023-03-02T08:46:08.581Z,37.20
2023-03-02T08:48:35.758Z,44.73
2023-03-02T08:51:04.363Z,35.37
2023-03-02T08:53:32.225Z,39.20
2023-03-02T08:55:59.371Z,43.13
2023-03-02T08:58:26.545Z,37.43
2023-03-02T09:00:53.733Z,41.93
2023-03-02T09:03:21.020Z,38.03
2023-03-02T09:05:48.479Z,37.03
2023-03-02T09:08:15.650Z,33.40
2023-03-02T09:10:42.758Z,40.43
2023-03-02T09:13:09.949Z,37.97
2023-03-02T09:15:37.137Z,39.23
2023-03-02T09:18:04.320Z,36.77
2023-03-02T09:20:32.134Z,44.63
2023-03-02T09:22:59.387Z,34.73
2023-03-02T09:25:26.515Z,37.22
2023-03-02T09:27:53.701Z,36.75
2023-03-02T09:30:20.902Z,37.17
2023-03-02T09:32:49.140Z,33.90
2023-03-02T09:35:16.406Z,33.58
2023-03-02T09:37:44.611Z,39.13
2023-03-02T09:40:21.605Z,35.67
2023-03-02T09:43:07.456Z,33.88
2023-03-02T09:45:37.639Z,31.08
2023-03-02T09:48:07.589Z,28.92
2023-03-02T09:50:35.701Z,25.13
2023-03-02T09:53:02.833Z,23.20
2023-03-02T09:55:30.423Z,29.00
2023-03-02T09:57:57.591Z,29.88
2023-03-02T10:00:26.720Z,25.60
2023-03-02T10:02:56.231Z,23.42
2023-03-02T10:05:32.607Z,29.10
2023-03-02T10:07:59.773Z,23.15
2023-03-02T10:10:44.825Z,23.25
2023-03-02T10:13:17.192Z,17.73
2023-03-02T10:15:56.882Z,15.02
2023-03-02T10:18:39.505Z,19.80
2023-03-02T10:21:27.248Z,19.05
2023-03-02T10:23:54.549Z,20.50
2023-03-02T10:26:40.437Z,21.17
2023-03-02T10:29:26.125Z,23.20
2023-03-02T10:31:55.676Z,16.50
2023-03-02T10:34:24.153Z,19.35
2023-03-02T10:36:51.296Z,22.38
2023-03-02T10:39:18.463Z,18.42
2023-03-02T10:41:49.489Z,16.25
2023-03-02T10:44:16.688Z,14.00
2023-03-02T12:54:41.592Z,18.45
2023-03-02T12:57:14.401Z,19.48
2023-03-02T12:59:41.639Z,22.08
2023-03-02T13:02:11.666Z,21.85
2023-03-02T13:04:38.869Z,15.55
2023-03-02T13:07:06.251Z,18.10
2023-03-02T13:09:33.417Z,12.60
2023-03-02T13:12:00.576Z,15.10
2023-03-02T13:14:28.395Z,13.73
2023-03-02T13:16:56.496Z,14.50
2023-03-02T13:19:23.702Z,16.33
2023-03-02T13:21:50.905Z,16.70
2023-03-02T13:24:29.945Z,17.33
2023-03-02T13:26:58.371Z,13.40
2023-03-02T13:29:28.543Z,20.50
2023-03-02T13:31:55.830Z,14.32
2023-03-02T13:34:24.013Z,15.27
2023-03-02T13:36:51.270Z,13.45
2023-03-02T13:39:19.703Z,25.80
2023-03-02T13:41:59.738Z,13.68
2023-03-02T13:44:27.727Z,13.77
2023-03-02T13:46:54.965Z,19.90
2023-03-02T13:49:32.591Z,26.67
2023-03-02T13:52:02.518Z,15.07
2023-03-02T13:54:30.367Z,17.05
2023-03-02T13:56:57.857Z,17.75
2023-03-02T13:59:25.151Z,16.70
2023-03-02T14:01:52.531Z,19.42
2023-03-02T14:04:23.200Z,16.15
2023-03-02T14:06:51.038Z,18.15
2023-03-02T14:09:18.314Z,14.27
2023-03-02T14:11:46.567Z,16.65
2023-03-02T14:14:15.226Z,16.55
2023-03-02T14:16:42.427Z,14.23
2023-03-02T14:19:11.213Z,17.08
2023-03-02T14:21:38.426Z,23.35
2023-03-02T14:24:05.781Z,20.88
2023-03-02T14:26:35.933Z,20.67
2023-03-02T14:29:26.640Z,21.02
2023-03-02T14:31:57.311Z,113.80
2023-03-02T14:34:24.517Z,38.15
2023-03-02T14:36:53.522Z,33.80
2023-03-02T14:39:20.923Z,23.67
2023-03-02T14:41:53.753Z,20.05
2023-03-02T14:44:21.618Z,29.05
2023-03-02T14:46:48.899Z,26.05
2023-03-02T14:49:16.102Z,25.30
2023-03-02T14:51:43.836Z,27.88
2023-03-02T14:54:13.558Z,28.88
2023-03-02T14:56:40.822Z,31.13
2023-03-02T14:59:10.083Z,33.38
2023-03-02T15:01:37.410Z,22.33
2023-03-02T15:04:04.740Z,29.60
2023-03-02T15:06:32.878Z,217.38
2023-03-02T15:09:00.609Z,200.68
2023-03-02T15:11:28.143Z,144.32
2023-03-02T15:13:55.494Z,241.65
2023-03-02T15:16:22.810Z,122.38
2023-03-02T15:18:50.465Z,151.38
2023-03-02T15:21:18.814Z,184.65
2023-03-02T15:23:46.083Z,47.67
2023-03-02T15:26:13.386Z,51.92
2023-03-02T15:28:40.748Z,79.50
2023-03-02T15:31:08.890Z,76.90
2023-03-02T15:33:36.143Z,87.68
2023-03-02T15:36:06.258Z,56.25
2023-03-02T15:38:33.827Z,46.63
2023-03-02T15:41:04.778Z,39.83
2023-03-02T15:43:32.071Z,36.20
2023-03-02T15:45:59.343Z,31.58
2023-03-02T15:48:26.563Z,36.85
2023-03-02T15:51:00.049Z,33.72
2023-03-02T15:53:27.686Z,32.40
2023-03-02T15:55:54.982Z,32.67
2023-03-02T15:58:23.460Z,31.65
2023-03-02T16:00:50.993Z,42.13
2023-03-02T16:03:19.747Z,42.60
2023-03-02T16:05:47.080Z,46.78
2023-03-02T16:08:14.370Z,44.65
2023-03-02T16:10:44.655Z,38.30
2023-03-02T16:13:15.575Z,43.28
2023-03-02T16:15:42.816Z,54.10
2023-03-02T16:18:11.691Z,71.15
2023-03-02T16:20:39.268Z,79.95
2023-03-02T16:23:07.724Z,104.75
2023-03-02T16:25:39.853Z,96.05
2023-03-02T16:28:10.605Z,121.10
2023-03-02T16:30:37.870Z,118.23
2023-03-02T16:33:05.823Z,122.25
2023-03-02T16:35:33.361Z,123.07
2023-03-02T16:38:00.674Z,120.93
2023-03-02T16:40:27.921Z,106.90
2023-03-02T16:42:55.143Z,114.33
2023-03-02T16:45:22.534Z,96.67
2023-03-02T16:47:49.753Z,100.53
2023-03-02T16:50:17.146Z,99.50
2023-03-02T16:52:44.749Z,110.10
2023-03-02T16:55:13.481Z,119.63
2023-03-02T16:57:40.827Z,118.75
2023-03-02T17:00:08.592Z,123.53
2023-03-02T17:02:35.850Z,124.67
2023-03-02T17:05:03.030Z,119.93
2023-03-02T17:07:30.218Z,118.60
2023-03-02T17:09:57.444Z,106.33
2023-03-02T17:12:24.632Z,110.20
2023-03-02T17:14:51.800Z,113.63
2023-03-02T17:17:19.035Z,104.20
2023-03-02T17:19:46.292Z,109.63
2023-03-02T17:22:13.497Z,109.93
2023-03-02T17:24:41.330Z,125.60
2023-03-02T17:27:19.087Z,124.17
2023-03-02T17:29:51.364Z,137.90
2023-03-02T17:32:18.583Z,138.00
2023-03-02T17:34:45.823Z,131.30
2023-03-02T17:37:13.043Z,131.40
2023-03-02T17:39:40.399Z,135.10
2023-03-02T17:42:07.576Z,128.63
2023-03-02T17:44:34.881Z,150.87
2023-03-02T17:47:06.714Z,153.40
2023-03-02T17:49:33.981Z,139.77
2023-03-02T17:52:01.213Z,145.90
2023-03-02T17:54:28.384Z,137.53
2023-03-02T17:56:55.558Z,151.93
2023-03-02T17:59:22.786Z,143.67
2023-03-02T18:01:49.993Z,172.87
2023-03-02T18:04:17.220Z,177.63
2023-03-02T18:06:44.473Z,159.30
2023-03-02T18:09:11.695Z,134.30
2023-03-02T18:11:41.368Z,120.30
2023-03-02T18:14:08.836Z,115.40
2023-03-02T18:16:36.617Z,117.53
2023-03-02T18:19:03.842Z,112.07
2023-03-02T18:21:31.284Z,123.63
2023-03-02T18:23:58.624Z,127.40
2023-03-02T18:26:25.850Z,154.53
2023-03-02T18:28:53.065Z,178.17
2023-03-02T18:31:20.359Z,147.13
2023-03-02T18:33:47.652Z,148.50
2023-03-02T18:36:15.293Z,111.83
2023-03-02T18:38:42.589Z,130.73
2023-03-02T18:41:09.993Z,144.93
2023-03-02T18:43:38.764Z,139.77
2023-03-02T18:46:06.171Z,137.57
2023-03-02T18:48:33.472Z,162.37
2023-03-02T18:51:00.686Z,169.63
2023-03-02T18:53:27.888Z,160.80
2023-03-02T18:55:55.754Z,153.83
2023-03-02T18:58:24.983Z,167.27
2023-03-02T19:00:53.431Z,176.57
2023-03-02T19:03:20.839Z,174.93
2023-03-02T19:05:48.130Z,172.37
2023-03-02T19:08:15.340Z,139.13
2023-03-02T19:10:42.614Z,140.00
2023-03-02T19:13:11.687Z,125.07
2023-03-02T19:15:42.248Z,128.10
2023-03-02T19:18:09.772Z,124.60
2023-03-02T19:20:37.048Z,162.83
2023-03-02T19:23:04.232Z,174.13
2023-03-02T19:25:31.428Z,217.70
2023-03-02T19:27:58.642Z,179.47
2023-03-02T19:30:26.443Z,192.10
2023-03-02T19:32:54.842Z,192.67
2023-03-02T19:35:22.813Z,206.03
2023-03-02T19:37:50.054Z,194.77
2023-03-02T19:40:17.829Z,182.37
2023-03-02T19:42:45.540Z,169.90
2023-03-02T19:45:14.649Z,186.47
2023-03-02T19:47:41.874Z,201.63
2023-03-02T19:50:09.459Z,173.30
2023-03-02T19:52:37.456Z,178.87
2023-03-02T19:55:05.713Z,180.40
2023-03-02T19:57:33.003Z,178.73
2023-03-02T20:00:00.198Z,183.10
2023-03-02T20:02:27.418Z,186.37
2023-03-02T20:04:54.671Z,166.07
2023-03-02T20:07:21.862Z,154.60
2023-03-02T20:09:49.046Z,171.87
2023-03-02T20:12:16.314Z,155.70
2023-03-02T20:14:48.634Z,154.77
2023-03-02T20:17:19.700Z,138.60
2023-03-02T20:19:47.246Z,160.70
2023-03-02T20:22:14.605Z,158.80
2023-03-02T20:24:41.867Z,169.20
2023-03-02T20:27:09.187Z,138.30
2023-03-02T20:29:36.702Z,157.80
2023-03-02T20:32:04.731Z,159.87
2023-03-02T20:34:31.854Z,164.33
2023-03-02T20:36:59.398Z,161.60
2023-03-02T20:39:27.828Z,152.37
2023-03-02T20:41:55.281Z,153.83
2023-03-02T20:44:22.600Z,149.33
2023-03-02T20:46:51.517Z,156.37
2023-03-02T20:49:18.852Z,168.27
2023-03-02T20:51:49.278Z,192.23
2023-03-02T20:54:17.024Z,199.10
2023-03-02T20:56:44.609Z,186.20
2023-03-02T20:59:11.756Z,175.00
2023-03-02T21:01:38.944Z,177.27
2023-03-02T21:04:06.106Z,129.97
2023-03-02T21:06:36.055Z,174.03
2023-03-02T21:09:03.549Z,180.37
2023-03-02T21:11:30.672Z,193.10
2023-03-02T21:13:59.324Z,192.33
2023-03-02T21:16:27.511Z,189.20
2023-03-02T21:18:57.654Z,167.80
2023-03-02T21:21:40.379Z,168.80
2023-03-02T21:24:08.850Z,181.43
2023-03-02T21:26:36.868Z,168.57
2023-03-02T21:29:05.220Z,194.30
2023-03-02T21:31:32.643Z,187.80
2023-03-02T21:34:00.722Z,180.33
2023-03-02T21:36:27.999Z,180.23
2023-03-02T21:38:55.289Z,184.97
2023-03-02T21:41:22.496Z,181.07
2023-03-02T21:43:49.853Z,156.27
2023-03-02T21:46:18.097Z,137.00
2023-03-02T21:48:45.610Z,159.93
2023-03-02T21:51:12.958Z,186.90
2023-03-02T21:53:40.305Z,202.37
2023-03-02T21:56:07.759Z,189.77
2023-03-02T21:58:34.991Z,220.03
2023-03-02T22:01:02.195Z,172.90
2023-03-02T22:03:29.314Z,172.53
2023-03-02T22:05:56.494Z,179.50
2023-03-02T22:08:23.658Z,156.37
2023-03-02T22:10:51.104Z,136.70
2023-03-02T22:13:24.980Z,121.67
2023-03-02T22:15:56.874Z,129.83
2023-03-02T22:18:26.987Z,114.87
2023-03-02T22:20:54.125Z,121.07
2023-03-02T22:23:22.488Z,139.60
2023-03-02T22:25:50.350Z,140.97
2023-03-02T22:28:21.299Z,131.97
2023-03-02T22:30:48.957Z,126.03
2023-03-02T22:33:23.036Z,118.47
2023-03-02T22:35:50.834Z,129.93
2023-03-02T22:38:23.966Z,147.03
2023-03-02T22:40:51.308Z,148.13
2023-03-02T22:43:31.630Z,145.00
2023-03-02T22:46:20.226Z,136.90
2023-03-02T22:48:47.913Z,135.77
2023-03-02T22:51:15.057Z,123.13
2023-03-02T22:53:49.095Z,127.80
2023-03-02T22:56:37.245Z,137.93
2023-03-02T22:59:15.298Z,133.87
2023-03-02T23:01:43.253Z,123.77
2023-03-02T23:04:33.841Z,153.27
2023-03-02T23:07:01.239Z,157.93
2023-03-02T23:09:29.224Z,148.97
2023-03-02T23:12:00.356Z,143.60
2023-03-02T23:14:35.572Z,158.17
2023-03-02T23:17:06.025Z,145.10
2023-03-02T23:19:33.154Z,154.47
2023-03-02T23:22:00.272Z,147.50
2023-03-02T23:24:27.573Z,146.93
2023-03-02T23:26:54.732Z,133.60
2023-03-02T23:29:21.997Z,144.13
2023-03-02T23:31:49.403Z,143.27
2023-03-02T23:34:16.628Z,135.73
2023-03-02T23:36:43.799Z,127.73
2023-03-02T23:39:11.081Z,121.23
2023-03-02T23:41:38.853Z,136.20
2023-03-02T23:44:06.409Z,139.17
2023-03-02T23:46:33.685Z,151.60
2023-03-02T23:49:01.187Z,147.23
2023-03-02T23:51:28.299Z,135.97
2023-03-02T23:53:55.530Z,133.57
2023-03-02T23:56:22.830Z,108.20
2023-03-02T23:58:50.092Z,104.50
